createdAt,value
2018-02-21T00:31:53.937Z,55.20
2018-02-21T00:32:56.454Z,55.60
2018-02-21T00:34:41.086Z,55.90
2018-02-21T00:35:43.233Z,56.30
2018-02-21T00:36:44.661Z,55.90
2018-02-21T00:37:47.288Z,55.90
2018-02-21T00:38:50.339Z,55.90
2018-02-21T00:39:54.975Z,56.00
2018-02-21T00:40:56.917Z,56.30
2018-02-21T00:41:58.993Z,56.40
2018-02-21T00:43:23.857Z,56.60
2018-02-21T00:44:26.529Z,56.40
2018-02-21T00:45:28.540Z,56.30
2018-02-21T00:46:30.107Z,56.10
2018-02-21T00:47:31.494Z,56.20
2018-02-21T00:48:32.896Z,56.30
2018-02-21T00:49:34.290Z,56.30
2018-02-21T00:50:35.675Z,56.30
2018-02-21T00:51:37.079Z,55.70
2018-02-21T00:52:38.510Z,55.70
2018-02-21T00:53:41.043Z,55.20
2018-02-21T00:54:42.453Z,55.20
2018-02-21T00:55:43.851Z,55.20
2018-02-21T00:56:46.746Z,55.70
2018-02-21T00:57:48.322Z,55.70
2018-02-21T00:59:56.959Z,56.10
2018-02-21T01:00:58.681Z,56.30
2018-02-21T01:02:01.229Z,55.90
2018-02-21T01:03:02.637Z,55.90
2018-02-21T01:05:09.613Z,55.80
2018-02-21T01:06:11.021Z,56.00
2018-02-21T01:07:12.413Z,55.70
2018-02-21T01:08:13.815Z,55.70
2018-02-21T01:10:19.613Z,55.30
2018-02-21T01:11:24.364Z,55.90
2018-02-21T01:12:26.645Z,55.40
2018-02-21T01:13:28.623Z,55.30
2018-02-21T01:14:30.162Z,55.40
2018-02-21T01:15:31.611Z,55.50
2018-02-21T01:16:32.999Z,55.70
2018-02-21T01:17:34.413Z,55.40
2018-02-21T01:18:36.925Z,55.40
2018-02-21T01:19:38.315Z,55.40
2018-02-21T01:20:39.988Z,54.80
2018-02-21T01:21:41.393Z,54.10
2018-02-21T01:22:42.780Z,54.40
2018-02-21T01:24:48.027Z,54.80
2018-02-21T01:25:51.035Z,55.00
2018-02-21T01:26:55.352Z,55.60
2018-02-21T01:27:57.130Z,54.80
2018-02-21T01:28:59.011Z,54.20
2018-02-21T01:30:01.183Z,54.80
2018-02-21T01:31:02.887Z,54.40
2018-02-21T01:32:04.302Z,54.30
2018-02-21T01:33:05.703Z,54.40
2018-02-21T01:34:07.854Z,54.90
2018-02-21T01:35:09.269Z,54.40
2018-02-21T01:36:10.675Z,54.50
2018-02-21T01:37:12.816Z,55.30
2018-02-21T01:38:15.213Z,54.80
2018-02-21T01:39:17.272Z,54.80
2018-02-21T01:40:20.363Z,54.50
2018-02-21T01:41:25.023Z,54.60
2018-02-21T01:42:27.766Z,54.90
2018-02-21T01:43:29.649Z,54.50
2018-02-21T01:44:31.067Z,54.70
2018-02-21T01:45:32.465Z,55.30
2018-02-21T01:46:34.619Z,55.50
2018-02-21T01:47:36.039Z,54.80
2018-02-21T01:48:37.432Z,55.10
2018-02-21T01:49:39.584Z,54.70
2018-02-21T01:50:54.083Z,54.60
2018-02-21T01:51:56.317Z,54.10
2018-02-21T01:54:01.799Z,54.70
2018-02-21T01:55:03.219Z,54.10
2018-02-21T01:56:06.114Z,54.80
2018-02-21T01:57:07.552Z,54.80
2018-02-21T01:58:08.955Z,54.40
2018-02-21T01:59:10.353Z,54.30
2018-02-21T02:00:11.747Z,54.60
2018-02-21T02:01:13.191Z,54.80
2018-02-21T02:02:15.341Z,53.90
2018-02-21T02:04:07.397Z,54.30
2018-02-21T02:05:08.811Z,54.40
2018-02-21T02:06:10.963Z,53.70
2018-02-21T02:07:13.118Z,54.30
2018-02-21T02:08:15.607Z,53.40
2018-02-21T02:09:39.262Z,53.30
2018-02-21T02:10:41.413Z,52.40
2018-02-21T02:11:42.829Z,52.40
2018-02-21T02:12:45.590Z,53.50
2018-02-21T02:13:47.642Z,52.50
2018-02-21T02:14:49.039Z,52.00
2018-02-21T02:15:53.092Z,51.60
2018-02-21T02:16:56.230Z,51.40
2018-02-21T02:17:58.203Z,51.30
2018-02-21T02:19:00.198Z,51.40
2018-02-21T02:20:02.464Z,52.90
2018-02-21T02:21:04.639Z,52.80
2018-02-21T02:23:39.274Z,53.40
2018-02-21T02:24:41.685Z,54.10
2018-02-21T02:25:44.337Z,54.40
2018-02-21T02:27:49.126Z,54.40
2018-02-21T02:28:54.152Z,54.70
2018-02-21T02:29:56.985Z,54.60
2018-02-21T02:30:58.990Z,54.60
2018-02-21T02:32:00.435Z,55.10
2018-02-21T02:33:01.847Z,55.10
2018-02-21T02:34:04.360Z,55.10
2018-02-21T02:35:06.057Z,55.10
2018-02-21T02:36:07.424Z,55.10
2018-02-21T02:37:09.560Z,55.30
2018-02-21T02:38:29.727Z,54.90
2018-02-21T02:39:49.715Z,54.90
2018-02-21T02:40:53.566Z,55.20
2018-02-21T02:41:56.635Z,54.80
2018-02-21T02:44:01.574Z,55.20
2018-02-21T02:45:02.979Z,55.20
2018-02-21T02:46:04.675Z,55.20
2018-02-21T02:47:07.216Z,54.90
2018-02-21T02:48:08.615Z,54.70
2018-02-21T02:49:10.008Z,54.80
2018-02-21T02:50:11.410Z,55.20
2018-02-21T02:51:14.037Z,55.20
2018-02-21T02:52:16.300Z,54.70
2018-02-21T02:53:17.948Z,54.70
2018-02-21T02:54:23.443Z,55.30
2018-02-21T02:55:26.186Z,55.30
2018-02-21T02:56:28.134Z,55.30
2018-02-21T02:57:29.860Z,55.30
2018-02-21T02:58:31.257Z,55.30
2018-02-21T02:59:32.645Z,54.70
2018-02-21T03:00:34.048Z,54.20
2018-02-21T03:01:35.747Z,53.50
2018-02-21T03:02:37.128Z,52.90
2018-02-21T03:03:39.260Z,54.30
2018-02-21T03:04:40.660Z,53.90
2018-02-21T03:06:46.119Z,55.00
2018-02-21T03:07:47.823Z,54.50
2018-02-21T03:08:49.217Z,54.70
2018-02-21T03:09:53.287Z,55.40
2018-02-21T03:10:55.439Z,55.10
2018-02-21T03:11:57.274Z,54.80
2018-02-21T03:12:58.985Z,55.30
2018-02-21T03:14:00.394Z,55.30
2018-02-21T03:15:03.315Z,54.90
2018-02-21T03:16:04.759Z,55.00
2018-02-21T03:17:07.909Z,53.60
2018-02-21T03:18:09.291Z,53.60
2018-02-21T03:19:10.673Z,53.60
2018-02-21T03:20:12.093Z,53.90
2018-02-21T03:21:13.519Z,53.90
2018-02-21T03:22:15.735Z,53.80
2018-02-21T03:23:17.216Z,53.40
2018-02-21T03:24:18.635Z,53.50
2018-02-21T03:26:25.847Z,53.80
2018-02-21T03:27:28.150Z,54.00
2018-02-21T03:28:29.581Z,54.30
2018-02-21T03:29:30.999Z,54.60
2018-02-21T03:30:33.152Z,54.80
2018-02-21T03:31:34.601Z,54.70
2018-02-21T03:32:36.032Z,54.80
2018-02-21T03:33:37.434Z,55.30
2018-02-21T03:34:39.586Z,55.80
2018-02-21T03:35:40.974Z,55.30
2018-02-21T03:36:42.365Z,55.30
2018-02-21T03:37:43.916Z,55.30
2018-02-21T03:38:46.221Z,55.30
2018-02-21T03:39:47.956Z,55.30
2018-02-21T03:40:49.361Z,55.30
2018-02-21T03:41:53.222Z,55.30
2018-02-21T03:42:56.159Z,55.30
2018-02-21T03:43:58.307Z,55.30
2018-02-21T03:45:00.036Z,55.20
2018-02-21T03:46:01.439Z,55.30
2018-02-21T03:47:02.869Z,55.40
2018-02-21T03:49:07.741Z,55.40
2018-02-21T03:50:09.160Z,55.10
2018-02-21T03:51:10.567Z,54.30
2018-02-21T03:52:11.961Z,54.50
2018-02-21T03:53:13.762Z,54.70
2018-02-21T03:54:16.751Z,54.80
2018-02-21T03:55:18.198Z,54.90
2018-02-21T03:56:24.420Z,54.30
2018-02-21T03:57:26.705Z,54.40
2018-02-21T03:58:29.713Z,55.30
2018-02-21T03:59:31.147Z,54.90
2018-02-21T04:00:32.535Z,54.80
2018-02-21T04:01:33.926Z,54.40
2018-02-21T04:02:35.327Z,54.30
2018-02-21T04:03:36.747Z,54.00
2018-02-21T04:04:38.152Z,54.30
2018-02-21T04:05:39.547Z,54.30
2018-02-21T04:06:40.949Z,53.30
2018-02-21T04:08:09.145Z,52.80
2018-02-21T04:09:10.544Z,52.70
2018-02-21T04:10:12.742Z,53.90
2018-02-21T04:11:14.607Z,53.60
2018-02-21T04:12:16.579Z,53.70
2018-02-21T04:13:17.993Z,54.00
2018-02-21T04:14:19.671Z,53.90
2018-02-21T04:15:23.498Z,53.50
2018-02-21T04:16:26.775Z,53.50
2018-02-21T04:17:28.617Z,53.30
2018-02-21T04:18:30.807Z,53.00
2018-02-21T04:19:32.955Z,53.50
2018-02-21T04:20:34.351Z,53.00
2018-02-21T04:21:35.743Z,53.10
2018-02-21T04:22:37.121Z,53.20
2018-02-21T04:23:39.276Z,54.00
2018-02-21T04:24:40.824Z,53.50
2018-02-21T04:25:42.517Z,53.30
2018-02-21T04:26:44.331Z,53.50
2018-02-21T04:27:45.981Z,53.70
2018-02-21T04:28:47.375Z,53.60
2018-02-21T04:29:48.788Z,53.60
2018-02-21T04:30:50.863Z,53.70
2018-02-21T04:31:53.073Z,53.60
2018-02-21T04:32:54.975Z,53.20
2018-02-21T04:33:56.667Z,53.10
2018-02-21T04:34:58.507Z,53.10
2018-02-21T04:36:00.641Z,53.50
2018-02-21T04:37:02.040Z,53.00
2018-02-21T04:38:04.186Z,53.40
2018-02-21T04:39:05.576Z,53.10
2018-02-21T04:40:07.295Z,53.20
2018-02-21T04:41:08.709Z,52.90
2018-02-21T04:42:10.944Z,53.10
2018-02-21T04:43:13.397Z,53.70
2018-02-21T04:44:15.916Z,53.20
2018-02-21T04:45:18.072Z,53.70
2018-02-21T04:46:22.524Z,53.20
2018-02-21T04:47:24.843Z,53.30
2018-02-21T04:48:26.539Z,53.40
2018-02-21T04:49:28.039Z,53.40
2018-02-21T04:50:29.861Z,53.40
2018-02-21T04:51:31.998Z,54.60
2018-02-21T04:52:33.435Z,53.50
2018-02-21T04:53:34.857Z,50.90
2018-02-21T04:56:32.953Z,53.50
2018-02-21T04:58:55.744Z,53.50
2018-02-21T04:59:57.559Z,53.20
2018-02-21T05:00:59.027Z,53.60
2018-02-21T05:02:00.739Z,53.50
2018-02-21T05:03:02.134Z,53.60
2018-02-21T05:04:03.543Z,53.60
2018-02-21T05:05:39.801Z,53.60
2018-02-21T05:06:41.960Z,54.10
2018-02-21T05:07:43.687Z,53.80
2018-02-21T05:08:45.966Z,54.00
2018-02-21T05:09:47.364Z,54.10
2018-02-21T05:10:48.757Z,54.10
2018-02-21T05:11:51.924Z,54.30
2018-02-21T05:12:54.601Z,54.40
2018-02-21T05:13:56.939Z,55.00
2018-02-21T05:14:58.358Z,54.60
2018-02-21T05:16:00.858Z,54.60
2018-02-21T05:17:02.254Z,54.80
2018-02-21T05:18:03.662Z,54.00
2018-02-21T05:19:05.785Z,54.30
2018-02-21T05:20:07.206Z,54.40
2018-02-21T05:21:08.605Z,54.40
2018-02-21T05:22:10.739Z,54.50
2018-02-21T05:23:12.429Z,54.60
2018-02-21T05:24:15.079Z,54.30
2018-02-21T05:25:17.254Z,54.60
2018-02-21T05:26:18.669Z,54.10
2018-02-21T05:27:22.033Z,54.20
2018-02-21T05:28:25.057Z,54.40
2018-02-21T05:29:26.693Z,54.10
2018-02-21T05:30:28.128Z,54.30
2018-02-21T05:31:29.545Z,54.50
2018-02-21T05:32:31.018Z,55.00
2018-02-21T05:33:32.422Z,54.90
2018-02-21T05:34:33.819Z,54.30
2018-02-21T05:35:35.267Z,54.90
2018-02-21T05:36:36.673Z,55.10
2018-02-21T05:37:38.069Z,54.80
2018-02-21T05:38:39.505Z,55.10
2018-02-21T05:39:40.892Z,55.20
2018-02-21T05:40:42.290Z,55.20
2018-02-21T05:41:44.143Z,55.20
2018-02-21T05:42:45.926Z,55.20
2018-02-21T05:44:50.885Z,55.30
2018-02-21T05:45:53.628Z,55.30
2018-02-21T05:46:55.510Z,55.20
2018-02-21T05:47:57.942Z,55.20
2018-02-21T05:48:59.363Z,54.80
2018-02-21T05:50:01.139Z,55.00
2018-02-21T05:51:02.533Z,55.20
2018-02-21T05:52:29.725Z,55.20
2018-02-21T05:53:31.144Z,55.30
2018-02-21T05:54:32.538Z,55.20
2018-02-21T05:55:33.957Z,55.30
2018-02-21T05:56:35.414Z,55.20
2018-02-21T05:57:36.807Z,55.20
2018-02-21T05:58:38.959Z,55.80
2018-02-21T05:59:40.340Z,55.30
2018-02-21T06:00:41.751Z,55.30
2018-02-21T06:01:43.433Z,55.30
2018-02-21T06:02:45.300Z,55.30
2018-02-21T06:03:47.237Z,55.30
2018-02-21T06:04:48.637Z,55.30
2018-02-21T06:05:52.503Z,55.00
2018-02-21T06:06:55.552Z,55.20
2018-02-21T06:07:57.291Z,54.80
2018-02-21T06:08:58.723Z,54.50
2018-02-21T06:10:00.105Z,54.00
2018-02-21T06:11:01.511Z,53.60
2018-02-21T06:12:02.915Z,53.10
2018-02-21T06:13:04.310Z,52.50
2018-02-21T06:14:05.694Z,52.10
2018-02-21T06:15:07.090Z,52.40
2018-02-21T06:16:08.623Z,52.90
2018-02-21T06:17:10.777Z,53.10
2018-02-21T06:18:12.171Z,53.30
2018-02-21T06:19:13.902Z,53.50
2018-02-21T06:21:19.021Z,53.30
2018-02-21T06:23:25.979Z,53.40
2018-02-21T06:25:31.311Z,53.90
2018-02-21T06:26:34.477Z,53.70
2018-02-21T06:27:35.888Z,53.80
2018-02-21T06:28:37.274Z,53.50
2018-02-21T06:29:38.669Z,53.70
2018-02-21T06:32:36.173Z,53.40
2018-02-21T06:33:39.205Z,53.40
2018-02-21T06:34:40.827Z,53.40
2018-02-21T06:35:42.417Z,53.80
2018-02-21T06:36:44.183Z,54.10
2018-02-21T06:37:46.907Z,54.10
2018-02-21T06:38:48.463Z,54.20
2018-02-21T06:39:50.698Z,54.10
2018-02-21T06:40:55.537Z,54.10
2018-02-21T06:41:58.354Z,54.30
2018-02-21T06:43:01.146Z,54.20
2018-02-21T06:44:02.614Z,54.20
2018-02-21T06:45:04.328Z,54.60
2018-02-21T06:46:06.755Z,55.10
2018-02-21T06:47:08.271Z,54.80
2018-02-21T06:48:09.914Z,54.20
2018-02-21T06:49:11.434Z,53.60
2018-02-21T06:50:12.987Z,53.70
2018-02-21T06:51:15.026Z,53.70
2018-02-21T06:52:18.009Z,53.70
2018-02-21T06:53:19.873Z,53.80
2018-02-21T06:54:24.341Z,53.80
2018-02-21T06:55:26.279Z,53.90
2018-02-21T06:56:28.172Z,54.00
2018-02-21T06:57:29.693Z,54.20
2018-02-21T06:58:31.249Z,54.30
2018-02-21T06:59:32.830Z,54.20
2018-02-21T07:00:34.356Z,54.40
2018-02-21T07:01:35.938Z,54.30
2018-02-21T07:02:37.340Z,54.60
2018-02-21T07:03:39.489Z,55.60
2018-02-21T07:04:40.882Z,55.10
2018-02-21T07:05:42.257Z,55.20
2018-02-21T07:06:44.034Z,55.20
2018-02-21T07:07:45.719Z,55.20
2018-02-21T07:08:48.617Z,55.20
2018-02-21T07:09:51.951Z,55.20
2018-02-21T07:10:54.475Z,55.20
2018-02-21T07:11:56.580Z,54.90
2018-02-21T07:12:58.487Z,54.60
2018-02-21T07:15:03.085Z,54.50
2018-02-21T07:17:07.609Z,54.40
2018-02-21T07:18:08.997Z,54.50
2018-02-21T07:19:11.535Z,54.30
2018-02-21T07:20:12.917Z,54.20
2018-02-21T07:22:17.797Z,54.00
2018-02-21T07:23:19.188Z,53.90
2018-02-21T07:24:23.305Z,53.90
2018-02-21T07:25:26.119Z,53.90
2018-02-21T07:27:30.986Z,53.60
2018-02-21T07:29:36.857Z,53.40
2018-02-21T07:31:41.577Z,53.80
2018-02-21T07:32:43.383Z,54.20
2018-02-21T07:34:51.050Z,53.80
2018-02-21T07:35:54.217Z,54.00
2018-02-21T07:36:56.644Z,53.60
2018-02-21T07:37:58.642Z,54.00
2018-02-21T07:40:04.117Z,54.50
2018-02-21T07:41:05.611Z,54.00
2018-02-21T07:42:07.010Z,53.90
2018-02-21T07:43:08.413Z,53.80
2018-02-21T07:44:10.962Z,54.30
2018-02-21T07:45:12.397Z,54.20
2018-02-21T07:46:14.128Z,54.60
2018-02-21T07:47:16.185Z,54.40
2018-02-21T07:49:22.956Z,53.50
2018-02-21T07:50:25.096Z,53.50
2018-02-21T07:51:26.759Z,53.90
2018-02-21T07:52:28.213Z,54.10
2018-02-21T07:53:29.637Z,54.00
2018-02-21T07:54:31.026Z,54.10
2018-02-21T07:55:32.421Z,53.90
2018-02-21T07:56:34.545Z,54.80
2018-02-21T07:57:35.942Z,54.60
2018-02-21T07:58:37.330Z,54.70
2018-02-21T08:00:41.868Z,54.70
2018-02-21T08:01:43.517Z,54.70
2018-02-21T08:02:46.438Z,54.00
2018-02-21T08:03:48.581Z,53.40
2018-02-21T08:04:50.275Z,53.00
2018-02-21T08:05:53.281Z,53.10
2018-02-21T08:07:58.641Z,53.30
2018-02-21T08:09:00.038Z,53.40
2018-02-21T08:10:01.452Z,52.80
2018-02-21T08:11:02.877Z,53.10
2018-02-21T08:12:04.282Z,53.40
2018-02-21T08:13:05.678Z,53.60
2018-02-21T08:14:07.061Z,53.70
2018-02-21T08:15:08.479Z,53.90
2018-02-21T08:16:10.887Z,53.80
2018-02-21T08:17:12.490Z,53.70
2018-02-21T08:19:18.500Z,53.80
2018-02-21T08:21:26.357Z,53.40
2018-02-21T08:22:28.173Z,53.50
2018-02-21T08:25:35.805Z,53.10
2018-02-21T08:26:37.241Z,52.90
2018-02-21T08:27:38.636Z,52.40
2018-02-21T08:28:40.754Z,52.00
2018-02-21T08:29:42.137Z,51.40
2018-02-21T08:30:44.455Z,51.40
2018-02-21T08:31:46.078Z,51.30
2018-02-21T08:32:48.649Z,51.30
2018-02-21T08:33:50.476Z,51.40
2018-02-21T08:34:53.841Z,51.30
2018-02-21T08:35:56.095Z,51.10
2018-02-21T08:38:00.982Z,51.30
2018-02-21T08:39:02.438Z,50.90
2018-02-21T08:40:03.829Z,50.80
2018-02-21T08:42:09.449Z,50.40
2018-02-21T08:43:10.835Z,50.70
2018-02-21T08:44:12.979Z,50.90
2018-02-21T08:45:14.896Z,50.40
2018-02-21T08:46:16.663Z,50.30
2018-02-21T08:47:18.112Z,50.40
2018-02-21T08:48:19.534Z,50.40
2018-02-21T08:49:24.150Z,50.70
2018-02-21T08:50:27.062Z,50.80
2018-02-21T08:51:29.864Z,51.00
2018-02-21T08:52:31.551Z,51.00
2018-02-21T08:54:37.533Z,51.50
2018-02-21T08:56:43.505Z,51.60
2018-02-21T08:57:46.931Z,51.00
2018-02-21T08:58:48.397Z,50.80
2018-02-21T09:03:01.433Z,51.20
2018-02-21T09:04:02.839Z,51.70
2018-02-21T09:05:04.249Z,52.00
2018-02-21T09:06:06.381Z,51.70
2018-02-21T09:07:08.502Z,51.20
2018-02-21T09:08:10.198Z,51.00
2018-02-21T09:09:11.614Z,50.90
2018-02-21T09:10:13.001Z,50.20
2018-02-21T09:11:59.502Z,51.10
2018-02-21T09:14:04.026Z,50.70
2018-02-21T09:15:06.165Z,50.70
2018-02-21T09:17:11.684Z,51.20
2018-02-21T09:19:00.882Z,50.40
2018-02-21T09:22:56.220Z,50.50
2018-02-21T09:23:58.063Z,50.50
2018-02-21T09:26:02.597Z,51.20
2018-02-21T09:27:04.032Z,50.40
2018-02-21T09:28:05.428Z,50.10
2018-02-21T09:29:07.569Z,50.30
2018-02-21T09:31:12.102Z,49.50
2018-02-21T09:32:14.042Z,49.60
2018-02-21T09:33:17.274Z,49.30
2018-02-21T09:34:18.688Z,49.20
2018-02-21T09:35:22.741Z,49.40
2018-02-21T09:36:26.494Z,49.20
2018-02-21T09:37:28.778Z,49.20
2018-02-21T09:38:30.274Z,49.00
2018-02-21T09:39:31.676Z,49.10
2018-02-21T09:40:33.061Z,48.60
2018-02-21T09:41:35.580Z,48.80
2018-02-21T09:43:40.153Z,48.90
2018-02-21T09:44:41.573Z,49.00
2018-02-21T09:46:46.897Z,49.00
2018-02-21T09:47:48.621Z,49.20
2018-02-21T09:48:52.181Z,49.40
2018-02-21T09:49:56.229Z,49.10
2018-02-21T09:52:18.574Z,49.10
2018-02-21T09:53:21.295Z,48.60
2018-02-21T09:57:34.557Z,48.50
2018-02-21T09:58:35.973Z,48.50
2018-02-21T09:59:37.354Z,48.60
2018-02-21T10:00:38.750Z,48.30
2018-02-21T10:01:41.634Z,48.10
2018-02-21T10:02:44.897Z,48.30
2018-02-21T10:03:46.826Z,48.40
2018-02-21T10:04:48.301Z,48.60
2018-02-21T10:06:56.461Z,48.80
2018-02-21T10:07:58.920Z,48.80
2018-02-21T10:09:00.369Z,48.80
2018-02-21T10:12:08.699Z,49.20
2018-02-21T10:13:10.834Z,50.00
2018-02-21T10:14:57.956Z,48.90
2018-02-21T10:15:59.658Z,48.80
2018-02-21T10:17:01.058Z,48.70
2018-02-21T10:18:03.574Z,48.80
2018-02-21T10:19:04.976Z,48.80
2018-02-21T10:20:06.658Z,48.90
2018-02-21T10:21:09.552Z,48.80
2018-02-21T10:22:10.940Z,48.80
2018-02-21T10:23:12.354Z,49.20
2018-02-21T10:25:19.238Z,48.70
2018-02-21T10:26:23.357Z,48.70
2018-02-21T10:27:26.922Z,48.50
2018-02-21T10:29:31.562Z,48.40
2018-02-21T10:30:33.214Z,48.10
2018-02-21T10:31:34.606Z,48.30
2018-02-21T10:32:36.750Z,48.50
2018-02-21T10:33:38.206Z,48.50
2018-02-21T10:34:39.602Z,48.40
2018-02-21T10:35:41.780Z,48.10
2018-02-21T10:37:04.533Z,48.10
2018-02-21T10:38:05.944Z,48.20
2018-02-21T10:39:07.329Z,48.30
2018-02-21T10:40:08.980Z,48.00
2018-02-21T10:42:16.444Z,47.80
2018-02-21T10:43:18.732Z,47.80
2018-02-21T10:45:51.878Z,47.90
2018-02-21T10:46:54.948Z,48.00
2018-02-21T10:47:58.499Z,47.80
2018-02-21T10:49:00.976Z,47.80
2018-02-21T10:50:02.554Z,47.80
2018-02-21T10:52:07.101Z,47.70
2018-02-21T10:53:08.515Z,47.80
2018-02-21T10:54:10.654Z,47.60
2018-02-21T10:55:12.786Z,48.00
2018-02-21T10:56:14.887Z,47.70
2018-02-21T10:57:17.540Z,47.90
2018-02-21T10:58:20.838Z,47.60
2018-02-21T10:59:27.540Z,47.80
2018-02-21T11:02:41.602Z,47.60
2018-02-21T11:03:44.029Z,47.40
2018-02-21T11:04:47.380Z,47.70
2018-02-21T11:06:56.847Z,47.60
2018-02-21T11:07:59.006Z,47.80
2018-02-21T11:09:00.454Z,47.60
2018-02-21T11:12:08.814Z,47.80
2018-02-21T11:13:11.294Z,47.80
2018-02-21T11:14:13.966Z,47.20
2018-02-21T11:16:18.927Z,47.50
2018-02-21T11:18:45.902Z,47.40
2018-02-21T11:19:47.974Z,47.50
2018-02-21T11:20:49.366Z,47.70
2018-02-21T11:21:55.281Z,47.70
2018-02-21T11:24:25.932Z,47.50
2018-02-21T11:25:27.954Z,47.40
2018-02-21T11:28:35.643Z,47.10
2018-02-21T11:29:37.301Z,46.90
2018-02-21T11:30:38.716Z,46.80
2018-02-21T11:31:40.125Z,46.80
2018-02-21T11:32:41.522Z,47.00
2018-02-21T11:33:42.942Z,47.00
2018-02-21T11:34:46.948Z,46.90
2018-02-21T11:35:48.457Z,46.80
2018-02-21T11:36:56.446Z,47.20
2018-02-21T11:37:58.717Z,47.30
2018-02-21T11:39:00.394Z,47.20
2018-02-21T11:40:01.834Z,47.30
2018-02-21T11:41:03.275Z,47.20
2018-02-21T11:42:05.414Z,47.30
2018-02-21T11:43:07.545Z,48.10
2018-02-21T11:45:12.124Z,47.10
2018-02-21T11:47:01.262Z,46.70
2018-02-21T11:48:02.670Z,46.70
2018-02-21T11:50:07.140Z,46.80
2018-02-21T11:51:08.915Z,47.60
2018-02-21T11:52:10.306Z,47.60
2018-02-21T11:53:11.708Z,47.40
2018-02-21T11:54:14.136Z,48.00
2018-02-21T11:55:16.601Z,47.30
2018-02-21T11:57:25.806Z,46.90
2018-02-21T11:58:28.194Z,46.50
2018-02-21T11:59:30.206Z,46.50
2018-02-21T12:00:31.606Z,46.60
2018-02-21T12:02:36.118Z,46.80
2018-02-21T12:03:38.621Z,46.70
2018-02-21T12:04:40.817Z,46.90
2018-02-21T12:06:47.845Z,46.70
2018-02-21T12:08:36.814Z,46.30
2018-02-21T12:09:38.202Z,46.30
2018-02-21T12:10:40.342Z,46.40
2018-02-21T12:11:41.738Z,46.30
2018-02-21T12:12:43.696Z,46.20
2018-02-21T12:13:46.817Z,46.10
2018-02-21T12:14:48.462Z,46.40
2018-02-21T12:15:51.640Z,46.10
2018-02-21T12:17:58.769Z,46.00
2018-02-21T12:19:00.437Z,45.70
2018-02-21T12:20:02.981Z,45.60
2018-02-21T12:21:04.381Z,45.60
2018-02-21T12:23:08.910Z,45.50
2018-02-21T12:24:11.418Z,45.50
2018-02-21T12:25:12.857Z,45.50
2018-02-21T12:27:18.778Z,45.10
2018-02-21T12:28:21.954Z,45.10
2018-02-21T12:29:25.966Z,45.10
2018-02-21T12:30:28.160Z,45.10
2018-02-21T12:31:30.729Z,45.10
2018-02-21T12:32:32.894Z,45.10
2018-02-21T12:33:34.317Z,45.10
2018-02-21T12:34:36.870Z,45.10
2018-02-21T12:35:38.252Z,45.50
2018-02-21T12:37:07.637Z,45.70
2018-02-21T12:39:05.018Z,45.50
2018-02-21T12:40:06.430Z,45.30
2018-02-21T12:42:48.842Z,45.80
2018-02-21T12:43:53.282Z,45.90
2018-02-21T12:45:59.854Z,46.10
2018-02-21T12:48:05.484Z,45.40
2018-02-21T12:49:06.877Z,45.40
2018-02-21T12:50:08.354Z,45.20
2018-02-21T12:51:10.469Z,45.30
2018-02-21T12:52:11.858Z,45.40
2018-02-21T12:53:13.267Z,45.70
2018-02-21T12:55:21.824Z,45.60
2018-02-21T12:56:25.162Z,45.90
2018-02-21T12:57:28.414Z,45.90
2018-02-21T12:59:34.090Z,45.80
2018-02-21T13:00:35.517Z,45.80
2018-02-21T13:02:40.010Z,45.50
2018-02-21T13:03:41.410Z,45.20
2018-02-21T13:04:44.076Z,45.30
2018-02-21T13:05:46.324Z,45.10
2018-02-21T13:06:48.170Z,45.50
2018-02-21T13:07:53.215Z,45.10
2018-02-21T13:09:59.134Z,45.10
2018-02-21T13:11:00.890Z,45.20
2018-02-21T13:12:02.286Z,45.10
2018-02-21T13:13:04.406Z,45.90
2018-02-21T13:14:05.811Z,45.50
2018-02-21T13:15:07.218Z,45.20
2018-02-21T13:16:08.986Z,45.10
2018-02-21T13:17:10.374Z,45.10
2018-02-21T13:18:14.880Z,45.20
2018-02-21T13:19:16.794Z,45.40
2018-02-21T13:20:18.422Z,45.60
2018-02-21T13:21:21.291Z,45.30
2018-02-21T13:23:28.115Z,45.80
2018-02-21T13:24:31.055Z,45.20
2018-02-21T13:25:32.448Z,45.20
2018-02-21T13:26:34.118Z,45.20
2018-02-21T13:27:35.506Z,45.50
2018-02-21T13:29:40.019Z,45.50
2018-02-21T13:30:42.150Z,45.60
2018-02-21T13:31:43.912Z,45.40
2018-02-21T13:32:46.116Z,45.80
2018-02-21T13:34:54.878Z,45.90
2018-02-21T13:37:01.384Z,45.70
2018-02-21T13:38:02.828Z,45.70
2018-02-21T13:39:05.338Z,45.90
2018-02-21T13:40:07.842Z,46.00
2018-02-21T13:41:09.253Z,46.10
2018-02-21T13:42:11.398Z,46.50
2018-02-21T13:43:12.818Z,45.90
2018-02-21T13:44:14.674Z,45.80
2018-02-21T13:47:26.524Z,45.70
2018-02-21T13:49:32.599Z,45.90
2018-02-21T13:51:37.127Z,45.90
2018-02-21T13:53:41.631Z,45.70
2018-02-21T13:54:43.845Z,45.70
2018-02-21T13:55:46.197Z,45.70
2018-02-21T13:56:48.037Z,46.00
2018-02-21T13:57:51.328Z,45.90
2018-02-21T13:59:58.294Z,46.00
2018-02-21T14:01:00.070Z,45.90
2018-02-21T14:02:01.469Z,45.90
2018-02-21T14:03:02.893Z,46.00
2018-02-21T14:04:04.287Z,46.00
2018-02-21T14:05:05.698Z,45.90
2018-02-21T14:06:07.878Z,45.80
2018-02-21T14:07:09.277Z,45.70
2018-02-21T14:08:10.695Z,45.30
2018-02-21T14:10:16.162Z,45.30
2018-02-21T14:12:24.794Z,45.70
2018-02-21T14:13:27.000Z,45.80
2018-02-21T14:14:28.876Z,45.80
2018-02-21T14:16:33.455Z,45.70
2018-02-21T14:17:34.871Z,45.70
2018-02-21T14:18:36.274Z,45.90
2018-02-21T14:19:37.677Z,45.80
2018-02-21T14:22:46.774Z,45.70
2018-02-21T14:23:48.470Z,45.60
2018-02-21T14:24:51.943Z,45.80
2018-02-21T14:25:56.866Z,45.80
2018-02-21T14:28:56.871Z,46.00
2018-02-21T14:29:59.135Z,46.20
2018-02-21T14:31:00.697Z,46.30
2018-02-21T14:32:02.083Z,46.30
2018-02-21T14:33:03.506Z,46.30
2018-02-21T14:35:09.157Z,46.20
2018-02-21T14:36:11.301Z,46.60
2018-02-21T14:37:14.503Z,46.10
2018-02-21T14:39:25.600Z,46.10
2018-02-21T14:40:28.808Z,46.10
2018-02-21T14:41:30.446Z,46.10
2018-02-21T14:42:32.965Z,46.30
2018-02-21T14:43:34.355Z,46.40
2018-02-21T14:44:35.763Z,46.40
2018-02-21T14:45:37.911Z,46.50
2018-02-21T14:47:44.090Z,46.60
2018-02-21T14:48:46.276Z,46.50
2018-02-21T14:49:48.474Z,46.30
2018-02-21T14:50:50.334Z,46.40
2018-02-21T14:54:01.357Z,47.10
2018-02-21T14:55:02.810Z,46.60
2018-02-21T14:57:07.322Z,46.80
2018-02-21T14:58:08.724Z,46.40
2018-02-21T15:00:13.239Z,46.60
2018-02-21T15:01:15.502Z,46.60
2018-02-21T15:02:17.945Z,46.80
2018-02-21T15:03:19.355Z,46.60
2018-02-21T15:04:24.667Z,47.60
2018-02-21T15:05:27.305Z,46.60
2018-02-21T15:06:29.359Z,46.60
2018-02-21T15:07:30.820Z,46.50
2018-02-21T15:08:32.963Z,46.60
2018-02-21T15:09:34.374Z,48.30
2018-02-21T15:10:35.795Z,46.60
2018-02-21T15:11:37.211Z,46.70
2018-02-21T15:12:38.599Z,46.70
2018-02-21T15:13:39.994Z,46.80
2018-02-21T15:14:41.401Z,47.00
2018-02-21T15:15:42.814Z,46.80
2018-02-21T15:17:48.342Z,46.80
2018-02-21T15:18:55.645Z,46.80
2018-02-21T15:21:00.763Z,46.80
2018-02-21T15:22:02.901Z,46.70
2018-02-21T15:23:04.329Z,46.80
2018-02-21T15:24:05.741Z,46.80
2018-02-21T15:26:10.257Z,46.60
2018-02-21T15:27:11.651Z,46.60
2018-02-21T15:29:17.359Z,46.40
2018-02-21T15:30:18.862Z,46.10
2018-02-21T15:34:33.259Z,46.40
2018-02-21T15:35:34.691Z,46.50
2018-02-21T15:38:42.320Z,46.50
2018-02-21T15:39:43.749Z,46.60
2018-02-21T15:41:49.004Z,46.50
2018-02-21T15:42:54.814Z,46.50
2018-02-21T15:43:57.047Z,46.50
2018-02-21T15:44:59.282Z,46.50
2018-02-21T15:48:07.139Z,46.70
2018-02-21T15:49:08.519Z,46.60
2018-02-21T15:50:09.919Z,46.20
2018-02-21T15:53:18.535Z,46.40
2018-02-21T15:55:29.555Z,46.00
2018-02-21T15:58:37.221Z,46.20
2018-02-21T15:59:38.623Z,46.30
2018-02-21T16:02:47.419Z,46.40
2018-02-21T16:03:48.844Z,46.50
2018-02-21T16:05:57.763Z,46.80
2018-02-21T16:08:03.073Z,47.10
2018-02-21T16:09:05.949Z,46.60
2018-02-21T16:10:07.363Z,46.70
2018-02-21T16:11:08.757Z,46.70
2018-02-21T17:53:51.950Z,47.30
2018-02-21T17:54:56.533Z,47.30
2018-02-21T17:57:02.499Z,47.40
2018-02-21T17:58:04.306Z,47.40
2018-02-21T18:00:08.837Z,47.70
2018-02-21T18:01:10.590Z,47.50
2018-02-21T18:02:11.990Z,47.60
2018-02-21T18:03:13.411Z,47.60
2018-02-21T18:04:14.797Z,47.40
2018-02-21T18:07:03.282Z,47.80
2018-02-21T18:13:57.151Z,47.40
2018-02-21T18:17:04.937Z,47.70